createdAt,value
2018-11-13T00:00:39.414Z,101020.50
2018-11-13T00:03:04.479Z,101023.89
2018-11-13T00:05:29.852Z,101022.56
2018-11-13T00:07:54.940Z,101021.71
2018-11-13T00:10:20.050Z,101022.41
2018-11-13T00:12:45.229Z,101030.83
2018-11-13T00:15:10.698Z,101032.44
2018-11-13T00:17:54.857Z,101033.09
2018-11-13T00:20:20.275Z,101039.67
2018-11-13T00:22:45.796Z,101034.15
2018-11-13T00:25:12.307Z,101027.64
2018-11-13T00:27:37.537Z,101035.45
2018-11-13T00:30:02.617Z,101027.17
2018-11-13T00:32:27.725Z,101021.66
2018-11-13T00:34:52.827Z,101022.08
2018-11-13T00:37:18.042Z,101028.11
2018-11-13T00:39:43.139Z,101021.28
2018-11-13T00:42:08.276Z,101031.15
2018-11-13T00:44:33.402Z,101031.27
2018-11-13T00:46:58.470Z,101027.96
2018-11-13T00:49:23.715Z,101016.25
2018-11-13T00:51:48.708Z,101012.53
2018-11-13T00:54:13.799Z,101017.46
2018-11-13T00:56:38.905Z,101020.73
2018-11-13T00:59:03.999Z,101017.59
2018-11-13T01:01:29.081Z,101011.95
2018-11-13T01:03:54.189Z,101009.30
2018-11-13T01:06:19.299Z,101001.42
2018-11-13T01:08:44.389Z,101010.96
2018-11-13T01:11:09.501Z,101007.10
2018-11-13T01:13:34.575Z,101004.91
2018-11-13T01:15:59.692Z,101011.55
2018-11-13T01:18:24.780Z,101017.83
2018-11-13T01:20:49.882Z,101026.47
2018-11-13T01:23:15.088Z,101027.87
2018-11-13T01:25:51.959Z,101031.08
2018-11-13T01:28:17.089Z,101026.23
2018-11-13T01:30:42.187Z,101027.37
2018-11-13T01:33:07.318Z,101032.84
2018-11-13T01:35:51.378Z,101024.56
2018-11-13T01:38:16.461Z,101018.70
2018-11-13T01:40:41.612Z,101012.06
2018-11-13T01:43:25.644Z,101012.36
2018-11-13T01:45:50.768Z,101014.31
2018-11-13T01:48:34.795Z,101013.79
2018-11-13T01:50:59.906Z,101020.84
2018-11-13T01:53:43.950Z,101031.08
2018-11-13T01:56:09.085Z,101044.30
2018-11-13T01:58:34.391Z,101053.38
2018-11-13T02:00:59.244Z,101055.09
2018-11-13T02:03:24.328Z,101045.45
2018-11-13T02:05:49.421Z,101043.72
2018-11-13T02:08:14.536Z,101042.33
2018-11-13T02:10:58.584Z,101056.57
2018-11-13T02:13:23.688Z,101066.78
2018-11-13T02:15:48.743Z,101071.37
2018-11-13T02:18:13.819Z,101063.77
2018-11-13T02:20:38.936Z,101060.11
2018-11-13T02:23:03.995Z,101066.28
2018-11-13T02:25:29.108Z,101062.34
2018-11-13T02:27:54.166Z,101062.93
2018-11-13T02:30:20.690Z,101058.65
2018-11-13T02:32:46.394Z,101056.48
2018-11-13T02:35:12.025Z,101050.80
2018-11-13T02:37:37.232Z,101047.22
2018-11-13T02:40:02.303Z,101043.97
2018-11-13T02:42:27.355Z,101036.64
2018-11-13T02:44:52.423Z,101027.87
2018-11-13T02:47:17.516Z,101016.14
2018-11-13T02:49:42.764Z,101016.98
2018-11-13T02:52:07.743Z,101010.28
2018-11-13T02:54:32.811Z,101015.53
2018-11-13T02:56:57.916Z,101016.74
2018-11-13T02:59:22.982Z,101003.31
2018-11-13T03:01:48.108Z,101009.61
2018-11-13T03:04:13.195Z,101015.20
2018-11-13T03:06:57.267Z,101007.49
2018-11-13T03:09:22.327Z,101004.47
2018-11-13T03:11:47.418Z,101002.73
2018-11-13T03:14:12.478Z,101011.67
2018-11-13T03:16:56.542Z,101016.56
2018-11-13T03:19:21.631Z,101008.77
2018-11-13T03:21:46.872Z,100999.58
2018-11-13T03:24:12.033Z,101001.67
2018-11-13T03:26:37.173Z,101006.09
2018-11-13T03:29:02.309Z,101003.07
2018-11-13T03:31:27.492Z,100997.34
2018-11-13T03:33:52.530Z,100998.45
2018-11-13T03:36:17.663Z,100999.75
2018-11-13T03:38:42.769Z,100993.70
2018-11-13T03:46:40.051Z,101003.75
2018-11-13T03:49:05.391Z,101010.56
2018-11-13T03:51:30.564Z,101008.13
2018-11-13T03:53:55.835Z,101016.00
2018-11-13T03:56:20.965Z,101039.37
2018-11-13T03:59:04.992Z,101035.45
2018-11-13T04:01:30.140Z,101044.35
2018-11-13T04:03:55.224Z,101052.86
2018-11-13T04:06:32.003Z,101034.08
2018-11-13T04:08:57.150Z,101028.61
2018-11-13T04:11:22.251Z,101022.06
2018-11-13T04:14:06.314Z,101005.95
2018-11-13T04:16:50.369Z,101009.70
2018-11-13T04:19:34.426Z,101017.64
2018-11-13T04:22:18.476Z,101022.16
2018-11-13T04:25:02.564Z,101039.83
2018-11-13T04:27:27.671Z,101035.52
2018-11-13T04:29:52.777Z,101030.14
2018-11-13T04:32:17.909Z,101019.59
2018-11-13T04:34:42.980Z,101019.83
2018-11-13T04:37:27.003Z,101030.84
2018-11-13T04:39:52.084Z,101038.76
2018-11-13T04:42:17.184Z,101037.31
2018-11-13T04:44:42.262Z,101028.20
2018-11-13T04:47:07.474Z,101029.05
2018-11-13T04:49:32.569Z,101032.78
2018-11-13T04:51:57.681Z,101033.94
2018-11-13T04:54:22.765Z,101037.23
2018-11-13T04:59:24.240Z,101033.13
2018-11-13T05:01:49.322Z,101035.23
2018-11-13T05:04:14.395Z,101029.69
2018-11-13T05:06:39.508Z,101028.90
2018-11-13T05:09:05.421Z,101028.45
2018-11-13T05:11:49.516Z,101030.11
2018-11-13T05:14:33.566Z,101029.16
2018-11-13T05:16:58.679Z,101033.13
2018-11-13T05:19:23.785Z,101042.95
2018-11-13T05:22:07.955Z,101052.30
2018-11-13T05:24:33.036Z,101058.23
2018-11-13T05:27:17.163Z,101079.02
2018-11-13T05:29:42.297Z,101093.02
2018-11-13T05:32:07.411Z,101102.83
2018-11-13T05:34:32.652Z,101107.03
2018-11-13T05:36:57.764Z,101105.35
2018-11-13T05:39:22.853Z,101107.20
2018-11-13T05:41:48.132Z,101101.00
2018-11-13T05:44:13.177Z,101097.02
2018-11-13T05:46:38.774Z,101091.08
2018-11-13T05:49:03.911Z,101094.38
2018-11-13T05:51:29.081Z,101093.87
2018-11-13T05:53:54.224Z,101105.19
2018-11-13T05:56:19.333Z,101090.31
2018-11-13T05:58:44.457Z,101095.36
2018-11-13T06:01:16.751Z,101087.42
2018-11-13T06:03:45.100Z,101077.52
2018-11-13T06:06:10.209Z,101069.78
2018-11-13T06:11:33.463Z,101060.74
2018-11-13T06:13:58.687Z,101053.69
2018-11-13T06:16:23.790Z,101038.31
2018-11-13T06:21:42.410Z,101026.75
2018-11-13T06:24:07.524Z,101034.84
2018-11-13T06:26:32.662Z,101050.81
2018-11-13T06:31:52.855Z,101079.47
2018-11-13T06:34:17.900Z,101088.97
2018-11-13T06:39:41.136Z,101114.37
2018-11-13T06:42:06.429Z,101126.08
2018-11-13T06:44:31.526Z,101125.22
2018-11-13T06:46:56.577Z,101126.95
2018-11-13T06:49:21.689Z,101124.79
2018-11-13T06:51:46.749Z,101135.33
2018-11-13T06:54:52.682Z,101140.89
2018-11-13T06:57:17.793Z,101144.02
2018-11-13T06:59:42.861Z,101148.18
2018-11-13T07:02:08.352Z,101152.20
2018-11-13T07:04:33.427Z,101161.20
2018-11-13T07:06:58.543Z,101168.41
2018-11-13T07:09:23.627Z,101173.80
2018-11-13T07:11:48.705Z,101177.73
2018-11-13T07:14:13.811Z,101171.52
2018-11-13T07:16:57.855Z,101168.98
2018-11-13T07:19:22.948Z,101171.78
2018-11-13T07:21:48.041Z,101166.19
2018-11-13T07:24:13.159Z,101154.90
2018-11-13T07:26:38.327Z,101146.86
2018-11-13T07:29:03.475Z,101154.38
2018-11-13T07:31:47.583Z,101155.07
2018-11-13T07:34:12.690Z,101156.20
2018-11-13T07:36:37.800Z,101157.59
2018-11-13T07:39:02.933Z,101161.95
2018-11-13T07:41:28.031Z,101150.81
2018-11-13T07:43:53.165Z,101148.51
2018-11-13T07:46:18.306Z,101142.75
2018-11-13T07:48:43.397Z,101132.88
2018-11-13T07:51:08.707Z,101139.92
2018-11-13T07:53:34.042Z,101129.98
2018-11-13T07:55:59.164Z,101124.52
2018-11-13T07:58:24.250Z,101144.70
2018-11-13T08:00:49.329Z,101148.55
2018-11-13T08:03:34.904Z,101163.25
2018-11-13T08:06:00.352Z,101176.58
2018-11-13T08:08:25.446Z,101168.74
2018-11-13T08:10:50.563Z,101160.73
2018-11-13T08:13:15.949Z,101162.48
2018-11-13T08:15:40.880Z,101177.29
2018-11-13T08:18:05.909Z,101194.86
2018-11-13T08:20:31.075Z,101199.11
2018-11-13T08:22:56.172Z,101208.94
2018-11-13T08:25:21.399Z,101202.34
2018-11-13T08:30:22.744Z,101215.31
2018-11-13T08:32:48.121Z,101211.89
2018-11-13T08:35:13.224Z,101205.36
2018-11-13T08:37:38.346Z,101201.45
2018-11-13T08:40:03.444Z,101198.84
2018-11-13T08:42:28.571Z,101201.06
2018-11-13T08:44:53.686Z,101203.30
2018-11-13T08:47:18.789Z,101216.64
2018-11-13T08:49:43.923Z,101205.69
2018-11-13T08:52:09.090Z,101200.47
2018-11-13T08:54:34.162Z,101199.68
2018-11-13T08:56:59.246Z,101197.69
2018-11-13T08:59:24.425Z,101215.06
2018-11-13T09:01:49.439Z,101211.49
2018-11-13T09:04:33.508Z,101219.42
2018-11-13T09:06:58.603Z,101214.91
2018-11-13T09:09:23.710Z,101179.87
2018-11-13T09:11:49.019Z,101211.60
2018-11-13T09:14:13.941Z,101213.54
2018-11-13T09:16:39.107Z,101209.52
2018-11-13T09:19:04.242Z,101221.38
2018-11-13T09:21:29.327Z,101232.78
2018-11-13T09:23:54.452Z,101229.48
2018-11-13T09:26:19.520Z,101231.81
2018-11-13T09:28:44.626Z,101213.17
2018-11-13T09:31:09.818Z,101217.02
2018-11-13T09:33:35.428Z,101220.75
2018-11-13T09:36:00.503Z,101225.36
2018-11-13T09:38:25.573Z,101216.97
2018-11-13T09:40:50.718Z,101227.98
2018-11-13T09:43:15.816Z,101224.07
2018-11-13T09:45:40.950Z,101218.22
2018-11-13T09:48:06.346Z,101219.73
2018-11-13T09:50:31.524Z,101224.14
2018-11-13T09:52:56.595Z,101223.87
2018-11-13T09:55:22.847Z,101227.45
2018-11-13T09:57:47.999Z,101223.79
2018-11-13T10:00:15.913Z,101229.63
2018-11-13T10:02:41.413Z,101229.91
2018-11-13T10:05:07.361Z,101229.27
2018-11-13T10:07:31.669Z,101225.72
2018-11-13T10:09:56.753Z,101225.34
2018-11-13T10:12:21.832Z,101227.45
2018-11-13T10:14:46.935Z,101225.85
2018-11-13T10:17:12.033Z,101229.41
2018-11-13T10:19:37.096Z,101232.66
2018-11-13T10:22:02.209Z,101233.03
2018-11-13T10:24:27.308Z,101229.03
2018-11-13T10:26:54.667Z,101225.66
2018-11-13T10:29:19.789Z,101225.84
2018-11-13T10:31:44.852Z,101228.13
2018-11-13T10:34:09.949Z,101228.89
2018-11-13T10:36:35.039Z,101234.30
2018-11-13T10:39:00.144Z,101231.55
2018-11-13T10:41:25.715Z,101229.16
2018-11-13T10:43:50.721Z,101228.23
2018-11-13T10:46:15.816Z,101228.51
2018-11-13T10:51:17.537Z,101230.69
2018-11-13T10:53:42.648Z,101223.89
2018-11-13T10:56:08.776Z,101225.38
2018-11-13T10:58:45.609Z,101225.69
2018-11-13T11:01:29.431Z,101224.11
2018-11-13T11:04:13.247Z,101222.83
2018-11-13T11:06:38.393Z,101218.18
2018-11-13T11:09:04.550Z,101216.45
2018-11-13T11:11:29.715Z,101218.13
2018-11-13T11:13:54.891Z,101213.27
2018-11-13T11:16:19.813Z,101218.88
2018-11-13T11:18:45.018Z,101215.58
2018-11-13T11:21:10.065Z,101226.11
2018-11-13T11:23:35.374Z,101231.78
2018-11-13T11:26:00.265Z,101223.20
2018-11-13T11:28:25.349Z,101231.06
2018-11-13T11:30:50.474Z,101242.91
2018-11-13T11:33:15.522Z,101247.98
2018-11-13T11:35:40.616Z,101249.16
2018-11-13T11:38:06.129Z,101245.21
2018-11-13T11:40:31.217Z,101246.06
2018-11-13T11:42:56.325Z,101241.22
2018-11-13T11:45:21.403Z,101242.25
2018-11-13T11:48:05.452Z,101243.51
2018-11-13T11:50:49.517Z,101242.81
2018-11-13T11:53:14.617Z,101248.28
2018-11-13T11:55:58.639Z,101253.50
2018-11-13T11:58:23.795Z,101244.56
2018-11-13T12:00:49.030Z,101253.32
2018-11-13T12:03:13.967Z,101247.82
2018-11-13T12:05:39.090Z,101241.91
2018-11-13T12:08:04.204Z,101249.78
2018-11-13T12:10:29.354Z,101249.12
2018-11-13T12:12:54.433Z,101251.16
2018-11-13T12:15:19.495Z,101237.95
2018-11-13T12:17:45.126Z,101241.20
2018-11-13T12:20:11.840Z,101225.01
2018-11-13T12:22:36.980Z,101241.44
2018-11-13T12:25:02.093Z,101244.81
2018-11-13T12:27:27.207Z,101243.08
2018-11-13T12:29:52.326Z,101248.19
2018-11-13T12:32:17.459Z,101248.16
2018-11-13T12:34:42.718Z,101257.78
2018-11-13T12:37:07.700Z,101244.23
2018-11-13T12:39:32.789Z,101261.78
2018-11-13T12:41:57.884Z,101272.87
2018-11-13T12:44:22.951Z,101276.73
2018-11-13T12:46:48.083Z,101273.03
2018-11-13T12:49:15.044Z,101269.48
2018-11-13T12:54:33.777Z,101283.52
2018-11-13T12:56:58.882Z,101284.64
2018-11-13T12:59:24.006Z,101292.30
2018-11-13T13:01:49.083Z,101287.38
2018-11-13T13:04:14.159Z,101285.06
2018-11-13T13:06:39.310Z,101285.75
2018-11-13T13:09:04.898Z,101288.98
2018-11-13T13:11:30.018Z,101301.11
2018-11-13T13:14:13.820Z,101291.24
2018-11-13T13:16:57.867Z,101290.13
2018-11-13T13:19:22.962Z,101296.56
2018-11-13T13:21:48.116Z,101281.16
2018-11-13T13:24:16.637Z,101283.52
2018-11-13T13:26:41.798Z,101292.22
2018-11-13T13:29:07.380Z,101282.80
2018-11-13T13:31:51.499Z,101285.17
2018-11-13T13:34:16.921Z,101292.30
2018-11-13T13:36:42.025Z,101286.62
2018-11-13T13:39:09.488Z,101292.56
2018-11-13T13:41:36.219Z,101285.33
2018-11-13T13:44:01.348Z,101289.27
2018-11-13T13:49:25.632Z,101286.34
2018-11-13T13:51:50.763Z,101304.86
2018-11-13T13:54:15.911Z,101291.25
2018-11-13T13:56:41.046Z,101298.09
2018-11-13T13:59:06.243Z,101294.70
2018-11-13T14:01:31.362Z,101314.19
2018-11-13T14:03:56.482Z,101314.40
2018-11-13T14:06:21.634Z,101322.04
2018-11-13T14:08:46.735Z,101322.58
2018-11-13T14:13:48.439Z,101326.89
2018-11-13T14:16:13.591Z,101337.50
2018-11-13T14:18:57.628Z,101333.95
2018-11-13T14:21:22.739Z,101342.30
2018-11-13T14:23:47.859Z,101344.38
2018-11-13T14:26:12.951Z,101370.00
2018-11-13T14:28:38.071Z,101351.66
2018-11-13T14:31:03.126Z,101348.00
2018-11-13T14:33:28.227Z,101349.80
2018-11-13T14:35:53.337Z,101350.67
2018-11-13T14:40:55.144Z,101373.36
2018-11-13T14:43:20.226Z,101376.27
2018-11-13T14:45:45.514Z,101380.17
2018-11-13T14:48:11.108Z,101389.27
2018-11-13T14:50:36.588Z,101397.70
2018-11-13T14:55:39.618Z,101397.56
2018-11-13T14:58:05.492Z,101403.68
2018-11-13T15:00:31.633Z,101408.67
2018-11-13T15:02:57.343Z,101412.43
2018-11-13T15:05:23.176Z,101415.92
2018-11-13T15:08:08.126Z,101417.55
2018-11-13T15:10:53.390Z,101418.70
2018-11-13T15:13:18.963Z,101426.69
2018-11-13T15:15:44.069Z,101428.69
2018-11-13T15:18:09.671Z,101429.92
2018-11-13T15:20:34.741Z,101435.94
2018-11-13T15:22:59.837Z,101430.58
2018-11-13T15:25:24.924Z,101437.33
2018-11-13T15:27:50.033Z,101442.59
2018-11-13T15:30:34.661Z,101451.75
2018-11-13T15:33:04.153Z,101444.79
2018-11-13T15:35:29.291Z,101450.82
2018-11-13T15:40:31.179Z,101454.27
2018-11-13T15:42:56.246Z,101456.77
2018-11-13T15:45:21.782Z,101459.56
2018-11-13T15:47:47.675Z,101459.74
2018-11-13T15:50:35.125Z,101465.48
2018-11-13T15:53:00.257Z,101465.95
2018-11-13T15:55:25.369Z,101472.81
2018-11-13T15:57:50.690Z,101482.48
2018-11-13T16:06:11.583Z,101489.71
2018-11-13T16:08:36.590Z,101489.45
2018-11-13T16:11:01.704Z,101491.31
2018-11-13T16:13:45.746Z,101497.95
2018-11-13T16:16:10.879Z,101497.53
2018-11-13T16:18:36.030Z,101508.30
2018-11-13T16:21:01.172Z,101515.22
2018-11-13T16:23:45.108Z,101511.89
2018-11-13T16:26:10.242Z,101513.09
2018-11-13T16:28:35.379Z,101516.14
2018-11-13T16:31:00.565Z,101519.53
2018-11-13T16:33:25.578Z,101514.09
2018-11-13T16:35:50.694Z,101516.61
2018-11-13T16:38:15.981Z,101516.71
2018-11-13T16:40:41.207Z,101523.43
2018-11-13T16:43:06.213Z,101525.85
2018-11-13T16:45:32.419Z,101531.86
2018-11-13T16:47:58.210Z,101533.42
2018-11-13T16:50:24.321Z,101536.94
2018-11-13T16:52:49.486Z,101543.30
2018-11-13T16:55:33.726Z,101542.92
2018-11-13T16:57:59.670Z,101540.52
2018-11-13T17:00:25.111Z,101543.14
2018-11-13T17:03:09.138Z,101556.41
2018-11-13T17:05:34.301Z,101560.91
2018-11-13T17:07:59.341Z,101557.30
2018-11-13T17:10:25.852Z,101559.20
2018-11-13T17:12:51.427Z,101559.97
2018-11-13T17:15:21.354Z,101572.27
2018-11-13T17:17:47.269Z,101564.11
2018-11-13T17:20:13.231Z,101568.87
2018-11-13T17:22:39.129Z,101568.20
2018-11-13T17:25:04.642Z,101574.15
2018-11-13T17:27:29.808Z,101582.04
2018-11-13T17:30:14.708Z,101580.16
2018-11-13T17:32:39.957Z,101586.70
2018-11-13T17:35:05.064Z,101586.04
2018-11-13T17:37:30.171Z,101592.13
2018-11-13T17:39:55.328Z,101600.61
2018-11-13T17:44:56.452Z,101595.94
2018-11-13T17:47:40.517Z,101605.20
2018-11-13T17:50:08.845Z,101600.27
2018-11-13T17:52:33.916Z,101597.52
2018-11-13T17:54:59.059Z,101597.00
2018-11-13T17:57:24.229Z,101607.48
2018-11-13T17:59:49.372Z,101604.83
2018-11-13T18:02:14.592Z,101600.47
2018-11-13T18:04:39.872Z,101597.61
2018-11-13T18:07:05.023Z,101607.39
2018-11-13T18:09:30.140Z,101606.37
2018-11-13T18:11:55.216Z,101610.05
2018-11-13T18:14:20.466Z,101610.16
2018-11-13T18:16:45.462Z,101611.48
2018-11-13T18:19:10.638Z,101609.59
2018-11-13T18:21:35.853Z,101619.30
2018-11-13T18:24:00.867Z,101619.14
2018-11-13T18:26:26.005Z,101622.41
2018-11-13T18:28:51.122Z,101619.16
2018-11-13T18:31:16.268Z,101618.59
2018-11-13T18:33:41.379Z,101621.73
2018-11-13T18:36:06.979Z,101610.57
2018-11-13T18:38:32.276Z,101618.84
2018-11-13T18:40:57.277Z,101614.84
2018-11-13T18:43:22.407Z,101619.42
2018-11-13T18:45:47.557Z,101623.27
2018-11-13T18:48:12.749Z,101631.23
2018-11-13T18:50:56.861Z,101626.37
2018-11-13T18:53:22.003Z,101632.78
2018-11-13T18:55:47.091Z,101633.83
2018-11-13T18:58:12.268Z,101639.55
2018-11-13T19:00:38.662Z,101636.69
2018-11-13T19:03:04.821Z,101642.38
2018-11-13T19:05:48.944Z,101648.35
2018-11-13T19:08:14.095Z,101646.97
2018-11-13T19:10:57.999Z,101655.82
2018-11-13T19:13:24.709Z,101652.95
2018-11-13T19:15:57.398Z,101651.41
2018-11-13T19:18:22.823Z,101651.36
2018-11-13T19:20:48.009Z,101654.93
2018-11-13T19:25:51.097Z,101660.63
2018-11-13T19:28:16.297Z,101658.19
2018-11-13T19:30:41.416Z,101662.14
2018-11-13T19:33:06.598Z,101657.70
2018-11-13T19:35:31.968Z,101661.47
2018-11-13T19:37:56.862Z,101663.27
2018-11-13T19:40:40.680Z,101660.81
2018-11-13T19:43:07.252Z,101672.96
2018-11-13T19:45:32.351Z,101673.88
2018-11-13T19:48:16.479Z,101674.45
2018-11-13T19:53:17.913Z,101681.41
2018-11-13T19:55:43.041Z,101682.15
2018-11-13T19:58:08.634Z,101682.14
2018-11-13T20:00:35.221Z,101681.92
2018-11-13T20:03:19.090Z,101685.34
2018-11-13T20:05:44.287Z,101688.23
2018-11-13T20:10:46.511Z,101695.64
2018-11-13T20:13:11.899Z,101695.97
2018-11-13T20:15:37.575Z,101706.45
2018-11-13T20:18:02.769Z,101707.13
2018-11-13T20:20:46.617Z,101716.11
2018-11-13T20:23:11.770Z,101717.30
2018-11-13T20:25:37.231Z,101726.17
2018-11-13T20:28:02.508Z,101715.39
2018-11-13T20:30:29.083Z,101720.08
2018-11-13T20:32:54.203Z,101723.02
2018-11-13T20:38:14.912Z,101721.45
2018-11-13T20:40:40.118Z,101728.61
2018-11-13T20:43:06.747Z,101728.25
2018-11-13T20:45:50.825Z,101723.68
2018-11-13T20:48:16.017Z,101734.77
2018-11-13T20:50:41.267Z,101721.73
2018-11-13T20:53:06.385Z,101737.22
2018-11-13T20:55:31.543Z,101741.81
2018-11-13T20:57:56.800Z,101745.54
2018-11-13T21:00:40.637Z,101747.52
2018-11-13T21:03:05.970Z,101745.13
2018-11-13T21:05:31.078Z,101742.41
2018-11-13T21:07:56.378Z,101745.54
2018-11-13T21:10:22.339Z,101742.41
2018-11-13T21:15:43.153Z,101744.60
2018-11-13T21:18:08.300Z,101758.26
2018-11-13T21:20:33.448Z,101755.10
2018-11-13T21:23:17.543Z,101755.24
2018-11-13T21:25:42.628Z,101755.30
2018-11-13T21:28:07.776Z,101751.92
2018-11-13T21:30:32.993Z,101758.64
2018-11-13T21:32:58.068Z,101761.22
2018-11-13T21:35:23.149Z,101765.17
2018-11-13T21:37:49.744Z,101765.80
2018-11-13T21:40:18.639Z,101773.31
2018-11-13T21:42:44.513Z,101774.71
2018-11-13T21:45:10.449Z,101778.06
2018-11-13T21:50:13.783Z,101781.98
2018-11-13T21:52:38.927Z,101786.77
2018-11-13T21:55:04.104Z,101791.52
2018-11-13T21:57:29.213Z,101792.92
2018-11-13T21:59:54.454Z,101795.91
2018-11-13T22:02:19.553Z,101810.51
2018-11-13T22:05:03.741Z,101809.18
2018-11-13T22:07:28.859Z,101811.16
2018-11-13T22:09:53.978Z,101806.39
2018-11-13T22:12:19.063Z,101805.96
2018-11-13T22:14:44.174Z,101812.13
2018-11-13T22:17:09.306Z,101817.86
2018-11-13T22:19:53.371Z,101818.06
2018-11-13T22:22:18.528Z,101816.07
2018-11-13T22:24:43.574Z,101814.33
2018-11-13T22:27:08.769Z,101827.17
2018-11-13T22:29:33.770Z,101821.43
2018-11-13T22:31:58.834Z,101827.96
2018-11-13T22:34:23.928Z,101832.73
2018-11-13T22:36:49.041Z,101835.48
2018-11-13T22:39:14.144Z,101838.86
2018-11-13T22:41:39.228Z,101837.87
2018-11-13T22:44:04.289Z,101840.24
2018-11-13T22:46:29.388Z,101842.23
2018-11-13T22:48:54.443Z,101842.22
2018-11-13T22:51:19.544Z,101836.29
2018-11-13T22:53:44.633Z,101840.80
2018-11-13T22:56:09.729Z,101845.99
2018-11-13T22:58:34.858Z,101849.15
2018-11-13T23:01:00.048Z,101850.34
2018-11-13T23:03:25.016Z,101848.96
2018-11-13T23:06:09.086Z,101846.20
2018-11-13T23:08:34.172Z,101855.89
2018-11-13T23:11:12.510Z,101851.53
2018-11-13T23:13:37.594Z,101847.97
2018-11-13T23:16:02.653Z,101857.02
2018-11-13T23:18:27.741Z,101854.27
2018-11-13T23:20:52.832Z,101843.39
2018-11-13T23:23:17.926Z,101853.91
2018-11-13T23:25:43.006Z,101803.19
2018-11-13T23:28:08.195Z,101855.30
2018-11-13T23:30:33.198Z,101869.55
2018-11-13T23:33:17.228Z,101863.03
2018-11-13T23:35:42.329Z,101865.20
2018-11-13T23:38:07.406Z,101870.76
2018-11-13T23:40:32.533Z,101876.89
2018-11-13T23:42:57.574Z,101870.76
2018-11-13T23:45:23.781Z,101873.91
2018-11-13T23:47:49.186Z,101871.91
2018-11-13T23:50:14.403Z,101879.27
2018-11-13T23:52:39.512Z,101886.20
2018-11-13T23:55:04.743Z,101881.42
2018-11-13T23:57:29.816Z,101887.95
2018-11-13T23:59:54.975Z,101887.17
